Time;durP1;ratioP1;P1;durP2;ratioP2;P2;SDS_P1;SDS_P2;PMS_P1;PMS_P2;Temp;Humidity;BMP_temperature;BMP_pressure;BME280_temperature;BME280_humidity;BME280_pressure;Samples;Min_cycle;Max_cycle;Signal;HPM_P1;HPM_P2
2020/12/08 00:00:22;;;;;;;;;;;;;;;2.27;100.00;97359.38;5091561;28;20034;-74
2020/12/08 00:02:48;;;;;;;22.00;12.45;;;;;;;2.20;100.00;97356.88;5091013;28;20296;-74
2020/12/08 00:05:16;;;;;;;23.80;15.32;;;;;;;2.11;100.00;97351.16;5089505;28;20025;-74
2020/12/08 00:07:41;;;;;;;22.60;14.13;;;;;;;2.20;100.00;97356.06;5089547;28;20035;-74
2020/12/08 00:10:07;;;;;;;21.67;12.07;;;;;;;2.12;100.00;97358.19;5091037;28;20020;-74
2020/12/08 00:12:32;;;;;;;;;;;;;;;2.15;100.00;97364.94;5091284;28;20099;-74
2020/12/08 00:14:58;;;;;;;18.77;10.55;;;;;;;2.12;100.00;97351.97;5090736;28;19919;-74
2020/12/08 00:17:24;;;;;;;14.75;10.18;;;;;;;2.17;100.00;97354.69;5091013;28;20047;-74
2020/12/08 00:19:49;;;;;;;17.45;12.15;;;;;;;2.15;100.00;97356.84;5089266;28;20035;-74
2020/12/08 00:22:15;;;;;;;14.52;10.32;;;;;;;2.07;100.00;97344.63;5089221;28;20031;-74
2020/12/08 00:24:40;;;;;;;13.38;10.55;;;;;;;2.15;100.00;97367.63;5089424;28;20385;-75
2020/12/08 00:27:09;;;;;;;;;;;;;;;2.26;100.00;97368.53;5090962;28;20035;-74
2020/12/08 00:29:36;;;;;;;17.77;11.07;;;;;;;2.37;100.00;97370.25;5090863;28;19912;-75
2020/12/08 00:32:01;;;;;;;18.27;11.13;;;;;;;2.37;100.00;97370.25;5090219;28;20032;-75
2020/12/08 00:34:26;;;;;;;15.02;10.45;;;;;;;2.53;100.00;97380.09;5090136;28;20495;-75
2020/12/08 00:36:52;;;;;;;14.82;11.18;;;;;;;2.59;100.00;97384.47;5090335;28;20103;-75
2020/12/08 00:39:17;;;;;;;15.88;10.02;;;;;;;2.49;100.00;97378.97;5090839;28;20038;-75
2020/12/08 00:41:43;;;;;;;17.80;9.75;;;;;;;2.37;100.00;97368.38;5088073;28;20030;-75
2020/12/08 00:44:08;;;;;;;16.50;10.02;;;;;;;2.33;100.00;97363.75;5089755;28;20043;-75
2020/12/08 00:46:33;;;;;;;11.70;9.57;;;;;;;2.35;100.00;97367.81;5090304;28;20028;-75
2020/12/08 00:48:59;;;;;;;13.38;9.25;;;;;;;2.44;100.00;97371.69;5090466;28;20047;-75
2020/12/08 00:51:24;;;;;;;14.40;9.45;;;;;;;2.54;100.00;97381.72;5089316;28;20516;-75
2020/12/08 00:53:49;;;;;;;;;;;;;;;2.67;100.00;97376.69;5090791;28;20020;-75
2020/12/08 00:56:15;;;;;;;12.85;9.65;;;;;;;2.68;100.00;97377.50;5090291;28;20015;-75
2020/12/08 00:58:40;;;;;;;;;;;;;;;2.80;100.00;97383.53;5091369;28;20039;-75
2020/12/08 01:01:07;;;;;;;16.60;10.25;;;;;;;2.72;100.00;97377.81;5089244;28;19947;-74
2020/12/08 01:03:36;;;;;;;13.02;9.98;;;;;;;2.66;100.00;97385.06;5090323;28;20404;-75
2020/12/08 01:06:02;;;;;;;18.67;10.48;;;;;;;2.66;100.00;97379.66;5090279;28;20036;-75
2020/12/08 01:08:31;;;;;;;19.08;12.18;;;;;;;2.80;100.00;97390.81;5090473;28;20036;-75
2020/12/08 01:10:56;;;;;;;16.73;9.82;;;;;;;2.81;100.00;97393.28;5090291;28;20133;-74
2020/12/08 01:13:22;;;;;;;15.55;10.65;;;;;;;2.71;100.00;97382.41;5088926;28;20463;-75
2020/12/08 01:15:48;;;;;;;18.00;10.95;;;;;;;2.81;100.00;97406.78;5090309;28;20028;-75
2020/12/08 01:18:14;;;;;;;14.60;9.52;;;;;;;2.84;100.00;97408.94;5090135;28;20370;-74
2020/12/08 01:20:40;;;;;;;14.43;10.68;;;;;;;2.80;100.00;97397.03;5090098;28;20024;-75
2020/12/08 01:23:06;;;;;;;14.85;10.18;;;;;;;2.75;100.00;97396.19;5089908;28;20115;-74
2020/12/08 01:25:32;;;;;;;26.92;14.15;;;;;;;2.69;100.00;97385.34;5090283;28;20026;-74
2020/12/08 01:27:59;;;;;;;15.15;9.70;;;;;;;2.64;100.00;97388.00;5089346;28;20077;-75
2020/12/08 01:30:24;;;;;;;15.43;10.20;;;;;;;2.67;100.00;97400.16;5090327;28;20024;-75
2020/12/08 01:32:50;;;;;;;16.13;10.20;;;;;;;2.76;100.00;97406.72;5090351;28;20378;-76
2020/12/08 01:35:17;;;;;;;;;;;;;;;2.90;100.00;97407.09;5089309;28;20028;-75
2020/12/08 01:37:46;;;;;;;17.75;10.93;;;;;;;2.87;100.00;97405.72;5090482;28;19912;-75
2020/12/08 01:40:13;;;;;;;17.13;9.77;;;;;;;2.85;100.00;97397.06;5088186;28;20035;-74
2020/12/08 01:42:38;;;;;;;18.23;11.07;;;;;;;2.97;100.00;97392.31;5092579;28;20048;-74
2020/12/08 01:45:05;;;;;;;17.38;10.80;;;;;;;2.91;100.00;97387.94;5111267;28;20035;-75
2020/12/08 01:47:31;;;;;;;15.70;9.02;;;;;;;2.79;100.00;97373.78;5113233;28;20085;-74
2020/12/08 01:49:57;;;;;;;13.75;8.57;;;;;;;2.93;100.00;97388.50;5111958;28;20032;-75
2020/12/08 01:52:22;;;;;;;14.77;9.05;;;;;;;2.91;100.00;97382.53;5111565;28;20024;-75
2020/12/08 01:54:51;;;;;;;12.95;9.13;;;;;;;2.86;100.00;97369.00;5113216;28;20043;-75
2020/12/08 01:57:17;;;;;;;12.00;8.50;;;;;;;2.80;100.00;97370.03;5111992;28;20032;-74
2020/12/08 01:59:42;;;;;;;13.52;9.18;;;;;;;2.71;100.00;97360.78;5113691;28;20036;-75
2020/12/08 02:02:07;;;;;;;9.07;6.93;;;;;;;2.72;100.00;97357.03;5113355;28;20031;-75
2020/12/08 02:04:35;;;;;;;9.55;7.15;;;;;;;2.71;100.00;97350.00;5113173;28;20031;-75
2020/12/08 02:07:00;;;;;;;15.88;8.07;;;;;;;2.65;100.00;97345.63;5109639;28;20035;-75
2020/12/08 02:09:26;;;;;;;13.18;7.63;;;;;;;2.64;100.00;97346.69;5110977;28;20031;-75
2020/12/08 02:11:51;;;;;;;14.88;8.43;;;;;;;2.70;100.00;97359.16;5111836;28;20105;-75
2020/12/08 02:14:16;;;;;;;;;;;;;;;2.92;100.00;97361.72;5111818;28;20054;-75
2020/12/08 02:16:42;;;;;;;9.95;8.13;;;;;;;2.80;100.00;97350.31;5111579;28;19927;-75
2020/12/08 02:19:07;;;;;;;10.43;7.63;;;;;;;2.84;100.00;97349.53;5112543;28;20031;-75
2020/12/08 02:21:34;;;;;;;11.38;8.23;;;;;;;2.84;100.00;97338.75;5111495;28;20527;-75
2020/12/08 02:24:01;;;;;;;12.30;7.05;;;;;;;2.99;100.00;97344.22;5112884;28;20370;-74
2020/12/08 02:26:26;;;;;;;12.93;7.70;;;;;;;2.79;100.00;97348.72;5110861;28;20077;-74
2020/12/08 02:28:53;;;;;;;12.90;7.65;;;;;;;2.74;100.00;97349.47;5112506;28;20128;-74
2020/12/08 02:31:19;;;;;;;9.85;6.80;;;;;;;2.84;100.00;97348.72;5112800;28;20032;-74
2020/12/08 02:33:44;;;;;;;12.10;7.65;;;;;;;2.78;100.00;97334.38;5112941;28;20038;-74
2020/12/08 02:36:10;;;;;;;;;;;;;;;2.83;100.00;97347.09;5112605;28;20032;-74
2020/12/08 02:38:35;;;;;;;10.82;6.32;;;;;;;2.79;100.00;97341.41;5111929;28;19912;-74
2020/12/08 02:41:01;;;;;;;24.52;11.27;;;;;;;2.73;100.00;97353.25;5111411;28;20027;-74
2020/12/08 02:43:26;;;;;;;;;;;;;;;2.62;100.00;97352.38;5112438;28;20043;-74
2020/12/08 02:45:52;;;;;;;13.25;7.65;;;;;;;2.57;100.00;97333.44;5111006;28;19916;-74
2020/12/08 02:48:18;;;;;;;9.45;7.85;;;;;;;2.65;100.00;97337.53;5110156;28;20426;-74
2020/12/08 02:50:43;;;;;;;12.00;7.40;;;;;;;2.59;100.00;97335.88;5112341;28;20484;-74
2020/12/08 02:53:09;;;;;;;11.63;7.78;;;;;;;2.60;100.00;97321.31;5110907;28;20023;-74
2020/12/08 02:55:34;;;;;;;;;;;;;;;2.64;100.00;97322.41;5111129;28;21094;-74
2020/12/08 02:57:59;;;;;;;17.38;7.15;;;;;;;2.65;100.00;97330.25;5112074;28;19964;-74
2020/12/08 03:00:26;;;;;;;15.15;9.85;;;;;;;2.61;100.00;97322.94;5111853;28;20042;-74
2020/12/08 03:02:51;;;;;;;17.95;10.85;;;;;;;2.49;100.00;97314.22;5112212;28;20384;-75
2020/12/08 03:05:17;;;;;;;19.38;11.77;;;;;;;2.44;100.00;97312.31;5111816;28;20023;-75
2020/12/08 03:07:42;;;;;;;;;;;;;;;2.54;100.00;97317.75;5110670;28;20074;-75
2020/12/08 03:10:08;;;;;;;22.55;9.57;;;;;;;2.55;100.00;97316.69;5112029;28;19915;-75
2020/12/08 03:12:33;;;;;;;;;;;;;;;2.57;100.00;97319.13;5111145;28;20023;-74
2020/12/08 03:14:59;;;;;;;19.38;11.20;;;;;;;2.58;100.00;97326.16;5112088;28;19920;-74
2020/12/08 03:17:24;;;;;;;;;;;;;;;2.70;100.00;97321.38;5112264;28;20032;-74
2020/12/08 03:19:50;;;;;;;20.77;10.30;;;;;;;2.56;100.00;97326.44;5111779;28;20010;-80
2020/12/08 03:22:16;;;;;;;19.45;10.20;;;;;;;2.50;100.00;97332.03;5110642;28;20070;-74
2020/12/08 03:24:41;;;;;;;18.02;10.63;;;;;;;2.42;100.00;97336.03;5111466;28;20055;-74
2020/12/08 03:27:06;;;;;;;19.30;11.82;;;;;;;2.47;100.00;97337.97;5110611;28;20054;-74
2020/12/08 03:29:32;;;;;;;;;;;;;;;2.43;100.00;97332.25;5112877;27;20040;-74
2020/12/08 03:31:57;;;;;;;19.58;11.77;;;;;;;2.39;100.00;97314.13;5112064;28;19953;-74
2020/12/08 03:34:22;;;;;;;;;;;;;;;2.38;100.00;97315.22;5111652;28;20055;-74
2020/12/08 03:36:48;;;;;;;17.70;10.40;;;;;;;2.41;100.00;97317.41;5114110;28;20424;-74
2020/12/08 03:39:16;;;;;;;25.27;12.35;;;;;;;2.38;100.00;97323.31;5112097;28;20053;-74
2020/12/08 03:41:41;;;;;;;27.85;14.25;;;;;;;2.34;100.00;97322.22;5112609;28;20048;-74
2020/12/08 03:44:07;;;;;;;24.92;11.23;;;;;;;2.43;100.00;97310.69;5112736;28;20039;-74
2020/12/08 03:46:32;;;;;;;21.77;11.90;;;;;;;2.40;100.00;97304.97;5110648;28;20484;-74
2020/12/08 03:48:58;;;;;;;23.00;13.27;;;;;;;2.39;100.00;97290.66;5105932;28;20070;-74
2020/12/08 03:51:23;;;;;;;20.95;11.40;;;;;;;2.36;100.00;97293.06;5112564;28;20476;-74
2020/12/08 03:53:49;;;;;;;;;;;;;;;2.44;100.00;97301.53;5113488;28;20076;-74
2020/12/08 03:56:17;;;;;;;21.75;11.43;;;;;;;2.46;100.00;97298.53;5114259;28;19923;-76
2020/12/08 03:58:43;;;;;;;22.50;11.55;;;;;;;2.52;100.00;97306.41;5114346;28;20031;-83
2020/12/08 04:01:15;;;;;;;24.83;13.35;;;;;;;2.54;100.00;97296.16;5115751;28;20027;-81
2020/12/08 04:03:42;;;;;;;28.63;14.35;;;;;;;2.53;100.00;97307.22;5115240;28;20035;-81
2020/12/08 04:06:07;;;;;;;21.15;11.88;;;;;;;2.52;100.00;97300.19;5115652;28;20069;-77
2020/12/08 04:08:33;;;;;;;16.83;8.90;;;;;;;2.47;100.00;97294.78;5114178;28;20035;-75
2020/12/08 04:10:58;;;;;;;16.02;8.32;;;;;;;2.57;100.00;97300.22;5114927;28;20507;-79
2020/12/08 04:13:23;;;;;;;12.98;9.70;;;;;;;2.66;100.00;97304.09;5110479;28;20024;-74
2020/12/08 04:15:49;;;;;;;16.00;8.63;;;;;;;2.66;100.00;97299.47;5110968;28;20071;-75
2020/12/08 04:18:17;;;;;;;17.98;10.48;;;;;;;2.70;100.00;97286.28;5110591;28;20122;-74
2020/12/08 04:20:44;;;;;;;15.00;8.77;;;;;;;2.68;100.00;97288.44;5110126;28;20095;-74
2020/12/08 04:23:14;;;;;;;16.83;9.77;;;;;;;2.81;100.00;97295.25;5111095;28;20028;-76
2020/12/08 04:25:40;;;;;;;15.65;8.93;;;;;;;2.86;100.00;97296.09;5110486;28;20427;-75
2020/12/08 04:28:06;;;;;;;13.45;7.82;;;;;;;2.90;100.00;97299.06;5111025;28;20119;-74
2020/12/08 04:30:33;;;;;;;15.10;9.50;;;;;;;2.71;100.00;97304.09;5108729;28;20027;-75
2020/12/08 04:32:58;;;;;;;13.18;8.35;;;;;;;2.56;100.00;97287.81;5110393;28;20685;-75
2020/12/08 04:35:24;;;;;;;14.80;8.35;;;;;;;2.50;100.00;97305.88;5110399;28;20106;-75
2020/12/08 04:37:49;;;;;;;13.80;7.97;;;;;;;2.60;100.00;97300.53;5109948;28;20111;-76
2020/12/08 04:40:15;;;;;;;13.60;8.45;;;;;;;2.48;100.00;97291.81;5109138;28;20051;-74
2020/12/08 04:42:47;;;;;;;15.48;8.10;;;;;;;2.55;100.00;97291.59;5110252;28;20413;-76
2020/12/08 04:45:14;;;;;;;21.48;12.02;;;;;;;2.57;100.00;97284.84;5110328;28;20032;-74
2020/12/08 04:47:43;;;;;;;28.63;12.55;;;;;;;2.44;100.00;97279.13;5098296;28;20046;-75
2020/12/08 04:50:11;;;;;;;20.05;12.05;;;;;;;2.46;100.00;97287.75;5101119;28;20031;-75
2020/12/08 04:52:36;;;;;;;29.30;13.13;;;;;;;2.48;100.00;97296.38;5110381;28;20456;-75
2020/12/08 04:55:02;;;;;;;29.05;12.75;;;;;;;2.43;100.00;97288.28;5108665;28;20062;-73
2020/12/08 04:57:28;;;;;;;25.70;13.25;;;;;;;2.33;100.00;97282.78;5108840;28;20031;-75
2020/12/08 05:00:14;;;;;;;22.75;12.43;;;;;;;2.33;100.00;97280.09;5109493;28;20392;-75
2020/12/08 05:02:46;;;;;;;18.38;9.13;;;;;;;2.41;100.00;97285.81;5110294;28;20023;-74
2020/12/08 05:05:12;;;;;;;25.73;12.48;;;;;;;2.33;100.00;97282.78;5110266;28;20027;-76
2020/12/08 05:07:37;;;;;;;27.02;13.73;;;;;;;2.25;100.00;97291.38;5110116;28;20400;-76
2020/12/08 05:10:03;;;;;;;30.08;13.18;;;;;;;2.26;100.00;97287.59;5110422;28;20043;-75
2020/12/08 05:12:28;;;;;;;33.63;12.93;;;;;;;2.17;100.00;97277.28;5108909;28;20028;-74
2020/12/08 05:14:54;;;;;;;30.17;13.73;;;;;;;2.16;100.00;97283.75;5110265;28;20043;-75
2020/12/08 05:17:24;;;;;;;28.80;13.63;;;;;;;2.03;100.00;97284.22;5109623;28;20016;-74
2020/12/08 05:20:02;;;;;;;27.80;12.10;;;;;;;2.03;100.00;97297.69;5111528;28;20374;-74
2020/12/08 05:22:27;;;;;;;21.75;11.05;;;;;;;1.98;100.00;97292.25;5114125;28;20746;-74
2020/12/08 05:24:52;;;;;;;27.40;12.25;;;;;;;1.80;100.00;97262.97;5113641;28;20108;-75
2020/12/08 05:27:19;;;;;;;24.20;12.65;;;;;;;1.95;100.00;97291.94;5112550;28;20027;-74
2020/12/08 05:29:45;;;;;;;24.73;14.55;;;;;;;2.01;100.00;97299.00;5103122;28;20039;-74
2020/12/08 05:32:33;;;;;;;27.30;13.38;;;;;;;2.02;100.00;97309.53;5113930;28;20867;-75
2020/12/08 05:35:02;;;;;;;21.83;10.48;;;;;;;1.93;100.00;97299.47;5112423;28;20531;-74
2020/12/08 05:37:33;;;;;;;19.02;10.35;;;;;;;2.00;100.00;97311.69;5112470;28;20055;-76
2020/12/08 05:40:04;;;;;;;27.95;10.82;;;;;;;1.98;100.00;97313.00;5113891;27;20023;-75
2020/12/08 05:42:32;;;;;;;24.30;10.95;;;;;;;1.96;100.00;97315.16;5113496;28;20092;-77
2020/12/08 05:44:58;;;;;;;25.38;10.98;;;;;;;1.94;100.00;97306.50;5113466;28;20118;-74
2020/12/08 05:47:24;;;;;;;24.33;9.50;;;;;;;1.98;100.00;97319.22;5109889;28;20476;-75
2020/12/08 05:50:02;;;;;;;31.33;10.90;;;;;;;2.00;100.00;97317.09;5113303;28;20053;-74
2020/12/08 05:52:32;;;;;;;20.85;11.10;;;;;;;1.97;100.00;97311.41;5113292;28;20020;-75
2020/12/08 05:55:11;;;;;;;26.67;10.43;;;;;;;2.08;100.00;97323.88;5113461;28;20034;-75
2020/12/08 05:57:38;;;;;;;21.58;11.55;;;;;;;1.90;100.00;97317.00;5112037;28;20031;-75
2020/12/08 06:00:19;;;;;;;21.00;10.43;;;;;;;2.00;100.00;97338.66;5113166;28;20027;-74
2020/12/08 06:02:44;;;;;;;23.73;11.20;;;;;;;1.91;100.00;97342.88;5113369;27;20040;-74
2020/12/08 06:05:09;;;;;;;26.75;11.43;;;;;;;1.97;100.00;97360.72;5111985;28;20088;-75
2020/12/08 06:07:35;;;;;;;23.35;12.05;;;;;;;1.99;100.00;97374.78;5111949;28;20480;-75
2020/12/08 06:10:10;;;;;;;24.10;10.90;;;;;;;1.99;100.00;97371.25;5111658;28;20487;-75
2020/12/08 06:12:37;;;;;;;31.73;12.30;;;;;;;2.01;100.00;97367.22;5111836;28;20119;-75
2020/12/08 06:15:27;;;;;;;25.88;11.07;;;;;;;2.04;100.00;97363.22;5107082;28;20488;-75
2020/12/08 06:17:53;;;;;;;19.92;11.25;;;;;;;2.22;100.00;97364.72;5104323;28;20036;-75
2020/12/08 06:20:19;;;;;;;18.60;11.15;;;;;;;2.32;100.00;97362.13;5104838;28;20035;-75
2020/12/08 06:22:58;;;;;;;30.73;10.65;;;;;;;2.22;100.00;97362.84;5100611;28;20024;-76
2020/12/08 06:25:24;;;;;;;23.60;10.52;;;;;;;2.18;100.00;97361.72;5103265;28;20020;-77
2020/12/08 06:27:50;;;;;;;25.45;11.00;;;;;;;2.24;100.00;97367.97;5102691;28;20500;-75
2020/12/08 06:30:24;;;;;;;21.63;9.70;;;;;;;2.35;100.00;97365.09;5103634;28;20023;-76
2020/12/08 06:32:50;;;;;;;28.23;11.68;;;;;;;2.32;100.00;97360.22;5099418;28;20105;-76
2020/12/08 06:35:17;;;;;;;25.58;11.13;;;;;;;2.41;100.00;97365.97;5101209;28;20078;-75
2020/12/08 06:37:48;;;;;;;23.50;9.98;;;;;;;2.39;100.00;97368.91;5104031;28;20024;-75
2020/12/08 06:40:18;;;;;;;20.08;11.10;;;;;;;2.43;100.00;97347.63;5098911;28;20039;-74
2020/12/08 06:42:45;;;;;;;17.27;10.02;;;;;;;2.51;100.00;97344.44;5097859;28;20036;-74
2020/12/08 06:45:23;;;;;;;20.35;10.10;;;;;;;2.52;100.00;97355.00;5099303;27;20023;-74
2020/12/08 06:47:49;;;;;;;23.08;9.65;;;;;;;2.50;100.00;97351.75;5098829;28;20066;-73
2020/12/08 06:50:23;;;;;;;16.27;10.20;;;;;;;2.51;100.00;97349.84;5113919;28;20039;-73
2020/12/08 06:53:00;;;;;;;15.10;8.93;;;;;;;2.45;100.00;97356.28;5113643;28;20543;-73
2020/12/08 06:55:27;;;;;;;20.38;11.20;;;;;;;2.30;100.00;97364.25;5113964;28;20055;-71
2020/12/08 06:57:53;;;;;;;23.65;9.82;;;;;;;2.32;100.00;97362.13;5114564;28;20031;-73
2020/12/08 07:00:19;;;;;;;18.63;10.65;;;;;;;2.32;100.00;97356.75;5106286;28;21311;-76
2020/12/08 07:02:51;;;;;;;18.40;10.48;;;;;;;2.20;100.00;97358.75;5094367;28;20126;-75
2020/12/08 07:05:21;;;;;;;17.45;9.95;;;;;;;2.11;100.00;97353.03;5091545;28;20111;-74
2020/12/08 07:07:48;;;;;;;17.05;9.13;;;;;;;2.25;100.00;97358.81;5091462;28;20036;-74
2020/12/08 07:10:14;;;;;;;14.52;8.88;;;;;;;2.23;100.00;97353.66;5101811;28;20031;-74
2020/12/08 07:12:45;;;;;;;16.38;9.70;;;;;;;2.17;100.00;97346.59;5108530;28;20023;-74
2020/12/08 07:15:15;;;;;;;16.80;11.35;;;;;;;2.24;100.00;97354.50;5089726;28;20115;-76
2020/12/08 07:17:41;;;;;;;19.80;11.55;;;;;;;2.26;100.00;97357.72;5089634;28;20082;-74
2020/12/08 07:20:06;;;;;;;20.50;11.50;;;;;;;2.39;100.00;97365.41;5108920;28;20508;-75
2020/12/08 07:22:43;;;;;;;19.60;10.90;;;;;;;2.31;100.00;97347.81;5110931;28;20030;-78
2020/12/08 07:25:11;;;;;;;16.98;10.98;;;;;;;2.30;100.00;97350.75;5109620;28;20035;-74
2020/12/08 07:27:41;;;;;;;24.02;11.50;;;;;;;2.28;100.00;97358.31;5109716;28;20119;-74
2020/12/08 07:30:06;;;;;;;17.73;9.80;;;;;;;2.27;100.00;97349.41;5107512;28;20020;-75
2020/12/08 07:32:32;;;;;;;20.40;9.50;;;;;;;2.31;100.00;97344.31;5090760;28;20032;-76
2020/12/08 07:34:57;;;;;;;17.92;9.57;;;;;;;2.26;100.00;97339.66;5090844;28;20058;-76
2020/12/08 07:37:23;;;;;;;12.02;9.23;;;;;;;2.35;100.00;97337.34;5089442;28;20032;-74
2020/12/08 07:39:48;;;;;;;;;;;;;;;2.43;100.00;97347.63;5091197;28;20103;-75
2020/12/08 07:42:17;;;;;;;14.52;9.88;;;;;;;2.50;100.00;97340.13;5089230;28;19926;-74
2020/12/08 07:44:56;;;;;;;16.25;11.63;;;;;;;2.53;100.00;97343.13;5090399;28;20039;-75
2020/12/08 07:47:22;;;;;;;20.63;11.65;;;;;;;2.58;100.00;97343.16;5089029;28;20039;-74
2020/12/08 07:49:47;;;;;;;18.33;11.57;;;;;;;2.67;100.00;97327.28;5089246;28;20038;-75
2020/12/08 07:52:17;;;;;;;16.42;9.32;;;;;;;2.72;100.00;97318.41;5071403;28;20035;-75
2020/12/08 07:57:31;;;;;;;13.35;8.77;;;;;;;2.75;100.00;97329.50;5079309;28;20555;-76
2020/12/08 07:59:57;;;;;;;14.15;8.63;;;;;;;2.66;100.00;97323.78;5093407;28;20027;-76
2020/12/08 08:02:22;;;;;;;15.00;9.70;;;;;;;2.77;100.00;97330.06;5110861;28;20027;-76
2020/12/08 08:04:48;;;;;;;18.48;10.45;;;;;;;2.73;100.00;97328.94;5111261;28;20080;-74
2020/12/08 08:07:13;;;;;;;13.00;8.77;;;;;;;2.72;100.00;97330.03;5110241;28;20059;-75
2020/12/08 08:09:39;;;;;;;18.08;9.82;;;;;;;2.87;100.00;97315.81;5111556;28;20028;-75
2020/12/08 08:12:04;;;;;;;15.18;8.80;;;;;;;2.75;100.00;97302.50;5100615;28;20024;-76
2020/12/08 08:14:29;;;;;;;;;;;;;;;2.86;100.00;97323.09;5089368;28;20469;-77
2020/12/08 08:16:55;;;;;;;14.82;9.48;;;;;;;2.92;100.00;97319.34;5109917;28;20396;-76
2020/12/08 08:19:20;;;;;;;19.13;9.45;;;;;;;2.92;100.00;97308.53;5092418;28;20027;-76
2020/12/08 08:21:46;;;;;;;16.23;10.10;;;;;;;2.76;100.00;97293.31;5088488;28;20027;-76
2020/12/08 08:24:11;;;;;;;;;;;;;;;2.89;100.00;97308.25;5088974;28;20024;-77
2020/12/08 08:26:40;;;;;;;12.63;8.73;;;;;;;2.83;100.00;97303.88;5098181;28;19941;-76
2020/12/08 08:29:09;;;;;;;21.08;11.82;;;;;;;2.87;100.00;97305.00;5091518;28;20024;-77
2020/12/08 08:31:35;;;;;;;15.65;8.48;;;;;;;2.79;100.00;97309.00;5088208;28;20131;-73
2020/12/08 08:34:01;;;;;;;15.15;9.52;;;;;;;2.87;100.00;97305.81;5089274;28;20108;-75
2020/12/08 08:36:27;;;;;;;16.10;9.02;;;;;;;2.76;100.00;97306.03;5088869;28;20063;-75
2020/12/08 08:38:53;;;;;;;16.77;10.77;;;;;;;2.73;100.00;97310.03;5087766;28;20462;-75
2020/12/08 08:41:18;;;;;;;;;;;;;;;2.78;100.00;97307.38;5089639;28;20063;-75
2020/12/08 08:43:44;;;;;;;22.67;9.95;;;;;;;2.71;100.00;97293.31;5089173;28;19931;-74
2020/12/08 08:46:11;;;;;;;18.30;12.32;;;;;;;2.89;100.00;97303.66;5087447;28;20067;-74
2020/12/08 08:48:37;;;;;;;17.17;9.20;;;;;;;2.80;100.00;97285.50;5088018;28;20020;-74
2020/12/08 08:51:02;;;;;;;18.60;10.68;;;;;;;2.65;100.00;97270.88;5089023;28;20004;-74
2020/12/08 08:53:28;;;;;;;;;;;;;;;2.89;100.00;97292.84;5092509;28;20023;-75
2020/12/08 08:55:53;;;;;;;15.00;8.40;;;;;;;2.84;100.00;97273.94;5100457;28;19927;-75
2020/12/08 08:58:18;;;;;;;;;;;;;;;3.00;100.00;97291.03;5093541;28;20108;-74
2020/12/08 09:00:44;;;;;;;15.20;8.90;;;;;;;2.90;100.00;97272.88;5093726;28;20010;-74
2020/12/08 09:03:10;;;;;;;16.33;9.90;;;;;;;2.91;100.00;97271.81;5091904;28;20012;-74
2020/12/08 09:05:36;;;;;;;16.88;10.88;;;;;;;3.43;99.68;97266.31;5092883;28;20020;-74
2020/12/08 09:08:02;;;;;;;16.02;10.13;;;;;;;3.39;99.10;97276.03;5092775;28;20032;-74
2020/12/08 09:10:27;;;;;;;19.52;10.15;;;;;;;2.99;99.99;97268.59;5092997;28;20496;-75
2020/12/08 09:12:52;;;;;;;;;;;;;;;2.91;100.00;97271.00;5109212;28;20026;-74
2020/12/08 09:15:18;;;;;;;10.30;6.63;;;;;;;2.62;100.00;97236.31;5113368;28;19911;-74
2020/12/08 09:17:43;;;;;;;13.30;9.38;;;;;;;2.69;100.00;97244.97;5111597;28;20035;-75
2020/12/08 09:20:09;;;;;;;12.98;8.77;;;;;;;2.68;100.00;97231.75;5112761;28;20034;-75
2020/12/08 09:22:34;;;;;;;12.90;9.20;;;;;;;2.79;100.00;97236.09;5112706;27;20032;-74
2020/12/08 09:25:00;;;;;;;12.43;8.30;;;;;;;2.82;100.00;97243.66;5113220;28;20024;-74
2020/12/08 09:27:25;;;;;;;;;;;;;;;2.92;100.00;97243.72;5113773;28;20039;-74
2020/12/08 09:30:10;;;;;;;;;;;;;;;;;;;;;
2020/12/08 09:32:35;;;;;;;13.65;8.75;;;;;;;2.73;100.00;97210.16;5115142;28;20024;-76
2020/12/08 09:35:01;;;;;;;14.90;8.52;;;;;;;2.80;100.00;97220.72;5114022;28;20038;-73
2020/12/08 09:37:26;;;;;;;;;;;;;;;3.02;100.00;97241.06;5114302;28;20402;-74
2020/12/08 09:39:52;;;;;;;9.60;7.32;;;;;;;2.94;100.00;97232.66;5112979;27;19915;-73
2020/12/08 09:42:17;;;;;;;;;;;;;;;2.98;100.00;97236.44;5113197;28;20063;-72
2020/12/08 09:44:45;;;;;;;14.98;8.43;;;;;;;2.93;100.00;97217.53;5111688;28;20386;-73
2020/12/08 09:47:11;;;;;;;12.07;7.32;;;;;;;2.97;100.00;97214.03;5112647;28;20035;-73
2020/12/08 09:49:36;;;;;;;14.27;7.05;;;;;;;2.94;100.00;97213.75;5112478;28;20395;-72
2020/12/08 09:52:02;;;;;;;;;;;;;;;2.94;100.00;97213.75;5112960;28;20012;-72
2020/12/08 09:54:27;;;;;;;12.20;6.85;;;;;;;2.88;100.00;97194.00;5110405;28;19969;-72
2020/12/08 09:56:52;;;;;;;14.70;8.93;;;;;;;2.96;100.00;97188.09;5091926;28;20024;-72
2020/12/08 09:59:18;;;;;;;13.70;7.60;;;;;;;2.94;100.00;97186.75;5101288;28;20032;-72
2020/12/08 10:01:43;;;;;;;12.48;7.78;;;;;;;2.86;100.00;97177.28;5112183;28;20407;-72
2020/12/08 10:04:09;;;;;;;18.23;10.05;;;;;;;2.84;100.00;97182.13;5105408;28;20020;-72
2020/12/08 10:06:34;;;;;;;12.02;7.32;;;;;;;2.81;100.00;97188.06;5089568;28;20028;-72
2020/12/08 10:09:00;;;;;;;;;;;;;;;2.86;100.00;97179.16;5092299;28;20016;-77
2020/12/08 10:11:25;;;;;;;11.98;7.30;;;;;;;2.82;100.00;97162.66;5090602;28;19963;-73
2020/12/08 10:13:51;;;;;;;;;;;;;;;2.98;100.00;97172.44;5101133;28;20031;-73
2020/12/08 10:16:25;;;;;;;17.75;11.60;;;;;;;3.03;100.00;97168.94;5110519;28;19964;-72
2020/12/08 10:18:52;;;;;;;17.40;10.35;;;;;;;3.01;100.00;97153.00;5111279;28;20027;-73
2020/12/08 10:21:24;;;;;;;16.42;8.60;;;;;;;3.13;100.00;97153.56;5111930;28;20361;-73
2020/12/08 10:23:51;;;;;;;16.33;9.73;;;;;;;3.23;100.00;97150.06;5111991;28;20084;-73
2020/12/08 10:26:17;;;;;;;13.23;7.20;;;;;;;3.34;99.78;97145.50;5111793;28;20023;-72
2020/12/08 10:28:42;;;;;;;10.25;7.35;;;;;;;3.33;99.60;97141.16;5111320;28;20433;-73
2020/12/08 10:31:08;;;;;;;11.27;6.10;;;;;;;3.23;99.00;97136.56;5110946;28;20481;-72
2020/12/08 10:33:33;;;;;;;;;;;;;;;3.27;99.42;97136.84;5112350;28;20050;-73
2020/12/08 10:36:00;;;;;;;11.23;7.85;;;;;;;3.27;99.84;97129.53;5106391;28;19916;-72
2020/12/08 10:38:27;;;;;;;15.27;8.80;;;;;;;3.32;100.00;97128.75;5090232;28;20519;-73
2020/12/08 10:40:52;;;;;;;10.32;7.75;;;;;;;3.17;100.00;97110.63;5091179;28;20061;-73
2020/12/08 10:43:19;;;;;;;12.85;6.60;;;;;;;3.17;100.00;97116.84;5090653;28;20047;-73
2020/12/08 10:45:45;;;;;;;9.80;8.02;;;;;;;3.27;100.00;97124.13;5111160;28;20073;-73
2020/12/08 10:48:11;;;;;;;9.48;7.55;;;;;;;3.35;100.00;97118.22;5111283;28;20028;-73
2020/12/08 10:50:36;;;;;;;12.13;7.85;;;;;;;3.33;100.00;97112.25;5111498;28;20027;-74
2020/12/08 10:53:02;;;;;;;8.25;6.53;;;;;;;3.27;100.00;97123.31;5111243;28;20036;-73
2020/12/08 10:55:27;;;;;;;;;;;;;;;3.28;100.00;97114.16;5102639;28;20043;-73
2020/12/08 10:57:52;;;;;;;12.38;6.95;;;;;;;3.14;100.00;97111.16;5090883;28;19919;-72
2020/12/08 11:00:18;;;;;;;;;;;;;;;3.26;100.00;97116.31;5100877;28;20149;-73
2020/12/08 11:02:43;;;;;;;21.98;8.32;;;;;;;3.09;100.00;97109.28;5108096;28;20288;-72
2020/12/08 11:05:09;;;;;;;12.07;7.65;;;;;;;3.17;100.00;97122.22;5092499;28;20400;-73
2020/12/08 11:07:34;;;;;;;12.20;8.85;;;;;;;3.31;100.00;97111.72;5097978;28;20039;-73
2020/12/08 11:10:00;;;;;;;12.85;8.35;;;;;;;3.32;100.00;97117.94;5098603;28;20030;-73
2020/12/08 11:12:26;;;;;;;11.25;7.70;;;;;;;3.04;100.00;97095.75;5096305;28;20567;-73
2020/12/08 11:14:53;;;;;;;19.17;7.90;;;;;;;3.11;100.00;97112.50;5097925;28;20036;-73
2020/12/08 11:17:18;;;;;;;18.13;12.70;;;;;;;3.10;100.00;97110.88;5097534;28;20824;-73
2020/12/08 11:19:44;;;;;;;17.50;12.05;;;;;;;3.20;100.00;97113.59;5097273;28;20020;-73
2020/12/08 11:22:10;;;;;;;;;;;;;;;3.30;100.00;97109.28;5099054;28;20028;-72
2020/12/08 11:24:37;;;;;;;12.93;8.07;;;;;;;3.32;100.00;97109.84;5097939;28;19916;-73
2020/12/08 11:27:02;;;;;;;9.65;6.75;;;;;;;3.41;100.00;97110.91;5095897;28;20586;-73
2020/12/08 11:29:28;;;;;;;12.65;7.95;;;;;;;3.27;100.00;97088.19;5099140;28;20035;-73
2020/12/08 11:31:53;;;;;;;13.77;7.15;;;;;;;3.44;100.00;97102.25;5095845;28;20546;-73